sensor_id;sensor_type;location;lat;lon;timestamp;P1;durP1;ratioP1;P2;durP2;ratioP2
79025;SDS011;71097;44.760;37.726;2023-07-29T00:00:55;11.30;;;4.32;;
79025;SDS011;71097;44.760;37.726;2023-07-29T00:01:57;11.98;;;3.55;;
79025;SDS011;71097;44.760;37.726;2023-07-29T00:02:59;11.50;;;4.57;;
79025;SDS011;71097;44.760;37.726;2023-07-29T00:04:01;10.90;;;3.63;;
79025;SDS011;71097;44.760;37.726;2023-07-29T00:05:03;8.15;;;4.18;;
79025;SDS011;71097;44.760;37.726;2023-07-29T00:06:05;9.52;;;4.00;;
79025;SDS011;71097;44.760;37.726;2023-07-29T00:07:07;11.23;;;4.47;;
79025;SDS011;71097;44.760;37.726;2023-07-29T00:08:09;9.18;;;4.18;;
79025;SDS011;71097;44.760;37.726;2023-07-29T00:09:11;10.68;;;4.10;;
79025;SDS011;71097;44.760;37.726;2023-07-29T00:10:13;11.48;;;4.18;;
79025;SDS011;71097;44.760;37.726;2023-07-29T00:11:15;8.88;;;4.10;;
79025;SDS011;71097;44.760;37.726;2023-07-29T00:12:17;9.43;;;3.83;;
79025;SDS011;71097;44.760;37.726;2023-07-29T00:13:19;8.60;;;4.25;;
79025;SDS011;71097;44.760;37.726;2023-07-29T00:14:21;12.13;;;3.78;;
79025;SDS011;71097;44.760;37.726;2023-07-29T00:15:23;14.57;;;4.18;;
79025;SDS011;71097;44.760;37.726;2023-07-29T00:16:25;13.05;;;4.30;;
79025;SDS011;71097;44.760;37.726;2023-07-29T00:17:27;13.15;;;4.95;;
79025;SDS011;71097;44.760;37.726;2023-07-29T00:18:29;14.98;;;4.53;;
79025;SDS011;71097;44.760;37.726;2023-07-29T00:19:31;9.60;;;4.13;;
79025;SDS011;71097;44.760;37.726;2023-07-29T00:20:33;6.97;;;4.07;;
79025;SDS011;71097;44.760;37.726;2023-07-29T00:21:35;11.20;;;4.25;;
79025;SDS011;71097;44.760;37.726;2023-07-29T00:22:42;8.90;;;4.18;;
79025;SDS011;71097;44.760;37.726;2023-07-29T00:23:45;10.82;;;4.55;;
79025;SDS011;71097;44.760;37.726;2023-07-29T00:24:51;10.30;;;4.82;;
79025;SDS011;71097;44.760;37.726;2023-07-29T00:25:56;9.13;;;4.60;;
79025;SDS011;71097;44.760;37.726;2023-07-29T00:26:58;9.95;;;4.03;;
79025;SDS011;71097;44.760;37.726;2023-07-29T00:28:00;9.82;;;4.38;;
79025;SDS011;71097;44.760;37.726;2023-07-29T00:29:02;12.10;;;4.38;;
79025;SDS011;71097;44.760;37.726;2023-07-29T00:30:04;9.30;;;3.83;;
79025;SDS011;71097;44.760;37.726;2023-07-29T00:31:07;10.73;;;4.40;;
79025;SDS011;71097;44.760;37.726;2023-07-29T00:32:09;11.95;;;4.00;;
79025;SDS011;71097;44.760;37.726;2023-07-29T00:33:11;10.65;;;4.28;;
79025;SDS011;71097;44.760;37.726;2023-07-29T00:35:20;11.60;;;4.80;;
79025;SDS011;71097;44.760;37.726;2023-07-29T00:36:22;10.68;;;3.75;;
79025;SDS011;71097;44.760;37.726;2023-07-29T00:37:24;9.50;;;4.18;;
79025;SDS011;71097;44.760;37.726;2023-07-29T00:38:26;13.05;;;4.57;;
79025;SDS011;71097;44.760;37.726;2023-07-29T00:39:29;10.52;;;3.92;;
79025;SDS011;71097;44.760;37.726;2023-07-29T00:40:31;11.50;;;4.10;;
79025;SDS011;71097;44.760;37.726;2023-07-29T00:41:36;11.48;;;4.47;;
79025;SDS011;71097;44.760;37.726;2023-07-29T00:42:39;11.40;;;4.75;;
79025;SDS011;71097;44.760;37.726;2023-07-29T00:43:43;9.38;;;4.45;;
79025;SDS011;71097;44.760;37.726;2023-07-29T00:44:45;13.77;;;4.68;;
79025;SDS011;71097;44.760;37.726;2023-07-29T00:45:47;8.85;;;4.95;;
79025;SDS011;71097;44.760;37.726;2023-07-29T00:46:52;9.70;;;4.63;;
79025;SDS011;71097;44.760;37.726;2023-07-29T00:47:58;10.10;;;4.43;;
79025;SDS011;71097;44.760;37.726;2023-07-29T00:49:03;17.15;;;4.95;;
79025;SDS011;71097;44.760;37.726;2023-07-29T00:50:11;17.17;;;4.75;;
79025;SDS011;71097;44.760;37.726;2023-07-29T00:51:15;15.23;;;4.25;;
79025;SDS011;71097;44.760;37.726;2023-07-29T00:52:17;13.75;;;5.70;;
79025;SDS011;71097;44.760;37.726;2023-07-29T00:53:18;14.45;;;4.93;;
79025;SDS011;71097;44.760;37.726;2023-07-29T00:54:20;11.48;;;4.53;;
79025;SDS011;71097;44.760;37.726;2023-07-29T00:55:22;12.48;;;4.38;;
79025;SDS011;71097;44.760;37.726;2023-07-29T00:56:25;19.33;;;4.47;;
79025;SDS011;71097;44.760;37.726;2023-07-29T00:57:35;12.80;;;4.88;;
79025;SDS011;71097;44.760;37.726;2023-07-29T00:58:39;12.93;;;5.88;;
79025;SDS011;71097;44.760;37.726;2023-07-29T00:59:41;20.05;;;4.75;;
79025;SDS011;71097;44.760;37.726;2023-07-29T01:00:43;14.82;;;4.90;;
79025;SDS011;71097;44.760;37.726;2023-07-29T01:01:46;12.73;;;5.28;;
79025;SDS011;71097;44.760;37.726;2023-07-29T01:02:48;20.95;;;5.65;;
79025;SDS011;71097;44.760;37.726;2023-07-29T01:03:57;13.00;;;5.00;;
79025;SDS011;71097;44.760;37.726;2023-07-29T01:04:59;18.05;;;4.78;;
79025;SDS011;71097;44.760;37.726;2023-07-29T01:08:52;15.73;;;4.80;;
79025;SDS011;71097;44.760;37.726;2023-07-29T01:11:27;15.02;;;5.68;;
79025;SDS011;71097;44.760;37.726;2023-07-29T01:13:00;16.70;;;5.10;;
79025;SDS011;71097;44.760;37.726;2023-07-29T01:15:36;8.10;;;3.85;;
79025;SDS011;71097;44.760;37.726;2023-07-29T01:16:51;8.40;;;4.05;;
79025;SDS011;71097;44.760;37.726;2023-07-29T01:18:02;11.73;;;3.38;;
79025;SDS011;71097;44.760;37.726;2023-07-29T01:19:15;9.63;;;3.85;;
79025;SDS011;71097;44.760;37.726;2023-07-29T01:20:37;8.13;;;3.85;;
79025;SDS011;71097;44.760;37.726;2023-07-29T01:21:41;12.20;;;4.00;;
79025;SDS011;71097;44.760;37.726;2023-07-29T01:22:43;7.80;;;3.53;;
79025;SDS011;71097;44.760;37.726;2023-07-29T01:23:46;11.00;;;3.47;;
79025;SDS011;71097;44.760;37.726;2023-07-29T01:24:47;6.40;;;3.50;;
79025;SDS011;71097;44.760;37.726;2023-07-29T01:25:50;9.88;;;3.80;;
79025;SDS011;71097;44.760;37.726;2023-07-29T01:26:51;7.15;;;3.50;;
79025;SDS011;71097;44.760;37.726;2023-07-29T01:27:54;7.07;;;3.55;;
79025;SDS011;71097;44.760;37.726;2023-07-29T01:28:57;8.63;;;3.88;;
79025;SDS011;71097;44.760;37.726;2023-07-29T01:29:59;6.30;;;3.83;;
79025;SDS011;71097;44.760;37.726;2023-07-29T01:32:25;8.88;;;4.35;;
79025;SDS011;71097;44.760;37.726;2023-07-29T01:33:35;10.52;;;3.25;;
79025;SDS011;71097;44.760;37.726;2023-07-29T01:34:45;9.40;;;4.47;;
79025;SDS011;71097;44.760;37.726;2023-07-29T01:35:58;8.50;;;3.90;;
79025;SDS011;71097;44.760;37.726;2023-07-29T01:37:04;7.97;;;3.63;;
79025;SDS011;71097;44.760;37.726;2023-07-29T01:38:14;11.13;;;4.45;;
79025;SDS011;71097;44.760;37.726;2023-07-29T01:39:24;7.65;;;3.70;;
79025;SDS011;71097;44.760;37.726;2023-07-29T01:40:28;10.50;;;3.92;;
79025;SDS011;71097;44.760;37.726;2023-07-29T01:41:31;8.80;;;3.75;;
79025;SDS011;71097;44.760;37.726;2023-07-29T01:42:38;7.60;;;3.75;;
79025;SDS011;71097;44.760;37.726;2023-07-29T01:43:40;10.77;;;4.10;;
79025;SDS011;71097;44.760;37.726;2023-07-29T01:44:45;8.48;;;3.65;;
79025;SDS011;71097;44.760;37.726;2023-07-29T01:45:47;10.00;;;4.10;;
79025;SDS011;71097;44.760;37.726;2023-07-29T01:46:49;9.85;;;3.72;;
79025;SDS011;71097;44.760;37.726;2023-07-29T01:47:53;11.38;;;4.40;;
79025;SDS011;71097;44.760;37.726;2023-07-29T01:48:56;8.63;;;4.15;;
79025;SDS011;71097;44.760;37.726;2023-07-29T01:50:01;8.65;;;3.65;;
79025;SDS011;71097;44.760;37.726;2023-07-29T01:51:11;11.35;;;4.68;;
79025;SDS011;71097;44.760;37.726;2023-07-29T01:52:20;9.85;;;4.40;;
79025;SDS011;71097;44.760;37.726;2023-07-29T01:53:24;8.50;;;4.95;;
79025;SDS011;71097;44.760;37.726;2023-07-29T01:55:36;10.80;;;4.65;;
79025;SDS011;71097;44.760;37.726;2023-07-29T01:56:39;13.98;;;4.93;;
79025;SDS011;71097;44.760;37.726;2023-07-29T01:57:43;9.23;;;5.05;;
79025;SDS011;71097;44.760;37.726;2023-07-29T01:58:46;11.85;;;5.75;;
79025;SDS011;71097;44.760;37.726;2023-07-29T01:59:48;14.50;;;4.78;;
79025;SDS011;71097;44.760;37.726;2023-07-29T02:00:50;9.80;;;5.13;;
79025;SDS011;71097;44.760;37.726;2023-07-29T02:01:59;16.45;;;4.63;;
79025;SDS011;71097;44.760;37.726;2023-07-29T02:03:04;10.20;;;4.50;;
79025;SDS011;71097;44.760;37.726;2023-07-29T02:04:05;11.75;;;4.95;;
79025;SDS011;71097;44.760;37.726;2023-07-29T02:05:07;9.65;;;5.13;;
79025;SDS011;71097;44.760;37.726;2023-07-29T02:06:10;11.05;;;5.18;;
79025;SDS011;71097;44.760;37.726;2023-07-29T02:07:11;10.07;;;5.45;;
79025;SDS011;71097;44.760;37.726;2023-07-29T02:08:13;10.40;;;5.63;;
79025;SDS011;71097;44.760;37.726;2023-07-29T02:09:21;14.25;;;5.97;;
79025;SDS011;71097;44.760;37.726;2023-07-29T02:10:23;14.35;;;6.47;;
79025;SDS011;71097;44.760;37.726;2023-07-29T02:11:25;18.48;;;7.68;;
79025;SDS011;71097;44.760;37.726;2023-07-29T02:12:30;18.23;;;7.35;;
79025;SDS011;71097;44.760;37.726;2023-07-29T02:13:31;19.98;;;8.40;;
79025;SDS011;71097;44.760;37.726;2023-07-29T02:14:35;23.55;;;8.00;;
79025;SDS011;71097;44.760;37.726;2023-07-29T02:15:37;18.63;;;8.13;;
79025;SDS011;71097;44.760;37.726;2023-07-29T02:16:39;16.02;;;7.70;;
79025;SDS011;71097;44.760;37.726;2023-07-29T02:17:42;13.63;;;7.90;;
79025;SDS011;71097;44.760;37.726;2023-07-29T02:18:44;20.13;;;7.45;;
79025;SDS011;71097;44.760;37.726;2023-07-29T02:19:46;16.02;;;7.07;;
79025;SDS011;71097;44.760;37.726;2023-07-29T02:20:48;22.67;;;8.25;;
79025;SDS011;71097;44.760;37.726;2023-07-29T02:21:53;13.90;;;5.68;;
79025;SDS011;71097;44.760;37.726;2023-07-29T02:22:54;14.13;;;6.72;;
79025;SDS011;71097;44.760;37.726;2023-07-29T02:24:00;16.10;;;6.63;;
79025;SDS011;71097;44.760;37.726;2023-07-29T02:25:02;14.13;;;6.80;;
79025;SDS011;71097;44.760;37.726;2023-07-29T02:26:04;22.17;;;6.70;;
79025;SDS011;71097;44.760;37.726;2023-07-29T02:27:07;21.83;;;7.03;;
79025;SDS011;71097;44.760;37.726;2023-07-29T02:28:09;22.83;;;7.50;;
79025;SDS011;71097;44.760;37.726;2023-07-29T02:29:10;23.45;;;6.93;;
79025;SDS011;71097;44.760;37.726;2023-07-29T02:30:12;16.85;;;6.88;;
79025;SDS011;71097;44.760;37.726;2023-07-29T02:32:22;17.98;;;5.78;;
79025;SDS011;71097;44.760;37.726;2023-07-29T02:33:24;19.23;;;6.07;;
79025;SDS011;71097;44.760;37.726;2023-07-29T02:34:26;15.95;;;5.75;;
79025;SDS011;71097;44.760;37.726;2023-07-29T02:35:31;17.05;;;5.72;;
79025;SDS011;71097;44.760;37.726;2023-07-29T02:36:33;13.80;;;6.07;;
79025;SDS011;71097;44.760;37.726;2023-07-29T02:37:35;14.18;;;5.53;;
79025;SDS011;71097;44.760;37.726;2023-07-29T02:38:37;18.48;;;5.43;;
79025;SDS011;71097;44.760;37.726;2023-07-29T02:39:39;16.30;;;6.20;;
79025;SDS011;71097;44.760;37.726;2023-07-29T02:40:41;16.83;;;5.93;;
79025;SDS011;71097;44.760;37.726;2023-07-29T02:41:43;17.23;;;6.03;;
79025;SDS011;71097;44.760;37.726;2023-07-29T02:42:45;16.65;;;6.47;;
79025;SDS011;71097;44.760;37.726;2023-07-29T02:43:48;15.30;;;5.60;;
79025;SDS011;71097;44.760;37.726;2023-07-29T02:44:50;23.23;;;6.40;;
79025;SDS011;71097;44.760;37.726;2023-07-29T02:45:53;16.45;;;5.80;;
79025;SDS011;71097;44.760;37.726;2023-07-29T02:46:55;13.30;;;5.93;;
79025;SDS011;71097;44.760;37.726;2023-07-29T02:47:57;15.20;;;6.18;;
79025;SDS011;71097;44.760;37.726;2023-07-29T02:48:59;15.25;;;5.65;;
79025;SDS011;71097;44.760;37.726;2023-07-29T02:50:01;14.20;;;5.90;;
79025;SDS011;71097;44.760;37.726;2023-07-29T02:51:03;19.63;;;6.13;;
79025;SDS011;71097;44.760;37.726;2023-07-29T02:52:05;14.63;;;6.10;;
79025;SDS011;71097;44.760;37.726;2023-07-29T02:53:07;12.02;;;6.32;;
79025;SDS011;71097;44.760;37.726;2023-07-29T02:54:09;18.42;;;6.00;;
79025;SDS011;71097;44.760;37.726;2023-07-29T02:55:11;10.88;;;6.30;;
79025;SDS011;71097;44.760;37.726;2023-07-29T02:56:13;18.70;;;7.15;;
79025;SDS011;71097;44.760;37.726;2023-07-29T02:57:15;13.80;;;6.20;;
79025;SDS011;71097;44.760;37.726;2023-07-29T02:59:20;15.60;;;6.43;;
79025;SDS011;71097;44.760;37.726;2023-07-29T03:00:22;20.15;;;6.18;;
79025;SDS011;71097;44.760;37.726;2023-07-29T03:01:23;13.18;;;6.45;;
79025;SDS011;71097;44.760;37.726;2023-07-29T03:02:28;12.57;;;5.25;;
79025;SDS011;71097;44.760;37.726;2023-07-29T03:03:30;9.65;;;5.68;;
79025;SDS011;71097;44.760;37.726;2023-07-29T03:04:33;12.45;;;5.63;;
79025;SDS011;71097;44.760;37.726;2023-07-29T03:05:35;9.40;;;5.47;;
79025;SDS011;71097;44.760;37.726;2023-07-29T03:06:38;16.80;;;5.55;;
79025;SDS011;71097;44.760;37.726;2023-07-29T03:07:40;15.00;;;6.03;;
79025;SDS011;71097;44.760;37.726;2023-07-29T03:08:42;13.27;;;6.00;;
79025;SDS011;71097;44.760;37.726;2023-07-29T03:09:44;13.75;;;6.43;;
79025;SDS011;71097;44.760;37.726;2023-07-29T03:10:46;14.57;;;5.82;;
79025;SDS011;71097;44.760;37.726;2023-07-29T03:11:48;11.25;;;5.93;;
79025;SDS011;71097;44.760;37.726;2023-07-29T03:12:50;14.07;;;6.00;;
79025;SDS011;71097;44.760;37.726;2023-07-29T03:13:52;11.82;;;6.10;;
79025;SDS011;71097;44.760;37.726;2023-07-29T03:14:53;19.38;;;6.20;;
79025;SDS011;71097;44.760;37.726;2023-07-29T03:16:04;11.88;;;5.70;;
79025;SDS011;71097;44.760;37.726;2023-07-29T03:17:20;11.68;;;6.45;;
79025;SDS011;71097;44.760;37.726;2023-07-29T03:18:22;14.13;;;5.70;;
79025;SDS011;71097;44.760;37.726;2023-07-29T03:19:24;12.10;;;5.95;;
79025;SDS011;71097;44.760;37.726;2023-07-29T03:20:26;14.25;;;6.10;;
79025;SDS011;71097;44.760;37.726;2023-07-29T03:21:27;10.43;;;5.85;;
79025;SDS011;71097;44.760;37.726;2023-07-29T03:22:29;12.32;;;5.97;;
79025;SDS011;71097;44.760;37.726;2023-07-29T03:23:31;13.90;;;5.57;;
79025;SDS011;71097;44.760;37.726;2023-07-29T03:24:34;10.45;;;5.40;;
79025;SDS011;71097;44.760;37.726;2023-07-29T03:25:36;15.07;;;6.05;;
79025;SDS011;71097;44.760;37.726;2023-07-29T03:26:37;14.93;;;6.18;;
79025;SDS011;71097;44.760;37.726;2023-07-29T03:27:39;16.67;;;6.68;;
79025;SDS011;71097;44.760;37.726;2023-07-29T03:28:42;17.73;;;6.22;;
79025;SDS011;71097;44.760;37.726;2023-07-29T03:29:45;18.77;;;7.68;;
79025;SDS011;71097;44.760;37.726;2023-07-29T03:30:47;20.15;;;8.55;;
79025;SDS011;71097;44.760;37.726;2023-07-29T03:31:49;18.23;;;6.88;;
79025;SDS011;71097;44.760;37.726;2023-07-29T03:32:51;13.82;;;6.70;;
79025;SDS011;71097;44.760;37.726;2023-07-29T03:33:53;20.02;;;7.55;;
79025;SDS011;71097;44.760;37.726;2023-07-29T03:34:55;15.50;;;7.25;;
79025;SDS011;71097;44.760;37.726;2023-07-29T03:35:57;16.58;;;7.72;;
79025;SDS011;71097;44.760;37.726;2023-07-29T03:37:00;19.15;;;8.25;;
79025;SDS011;71097;44.760;37.726;2023-07-29T03:38:02;19.48;;;7.40;;
79025;SDS011;71097;44.760;37.726;2023-07-29T03:39:04;16.95;;;7.63;;
79025;SDS011;71097;44.760;37.726;2023-07-29T03:40:06;16.05;;;7.05;;
79025;SDS011;71097;44.760;37.726;2023-07-29T03:41:10;14.77;;;7.22;;
79025;SDS011;71097;44.760;37.726;2023-07-29T03:42:13;17.00;;;7.28;;
79025;SDS011;71097;44.760;37.726;2023-07-29T03:43:15;15.88;;;6.85;;
79025;SDS011;71097;44.760;37.726;2023-07-29T03:44:17;19.05;;;7.28;;
79025;SDS011;71097;44.760;37.726;2023-07-29T03:45:19;16.77;;;6.10;;
79025;SDS011;71097;44.760;37.726;2023-07-29T03:46:21;15.95;;;5.88;;
79025;SDS011;71097;44.760;37.726;2023-07-29T03:47:23;17.25;;;5.30;;
79025;SDS011;71097;44.760;37.726;2023-07-29T03:48:26;16.25;;;6.28;;
79025;SDS011;71097;44.760;37.726;2023-07-29T03:49:28;18.02;;;5.70;;
79025;SDS011;71097;44.760;37.726;2023-07-29T03:50:30;18.50;;;5.25;;
79025;SDS011;71097;44.760;37.726;2023-07-29T03:51:32;16.85;;;5.28;;
79025;SDS011;71097;44.760;37.726;2023-07-29T03:52:39;13.45;;;4.95;;
79025;SDS011;71097;44.760;37.726;2023-07-29T03:53:41;12.27;;;5.00;;
79025;SDS011;71097;44.760;37.726;2023-07-29T03:54:43;13.05;;;5.85;;
79025;SDS011;71097;44.760;37.726;2023-07-29T03:55:45;14.98;;;6.13;;
79025;SDS011;71097;44.760;37.726;2023-07-29T03:56:48;17.77;;;6.13;;
79025;SDS011;71097;44.760;37.726;2023-07-29T03:57:49;16.63;;;6.88;;
79025;SDS011;71097;44.760;37.726;2023-07-29T03:58:52;13.75;;;6.00;;
79025;SDS011;71097;44.760;37.726;2023-07-29T03:59:54;13.50;;;5.43;;
79025;SDS011;71097;44.760;37.726;2023-07-29T04:00:56;18.60;;;6.03;;
79025;SDS011;71097;44.760;37.726;2023-07-29T04:01:58;15.68;;;5.80;;
79025;SDS011;71097;44.760;37.726;2023-07-29T04:03:00;13.30;;;5.65;;
79025;SDS011;71097;44.760;37.726;2023-07-29T04:04:02;13.27;;;5.32;;
79025;SDS011;71097;44.760;37.726;2023-07-29T04:05:04;15.20;;;5.57;;
79025;SDS011;71097;44.760;37.726;2023-07-29T04:06:12;18.67;;;5.82;;
79025;SDS011;71097;44.760;37.726;2023-07-29T04:07:14;13.02;;;5.07;;
79025;SDS011;71097;44.760;37.726;2023-07-29T04:08:16;15.77;;;5.53;;
79025;SDS011;71097;44.760;37.726;2023-07-29T04:09:22;16.20;;;5.35;;
79025;SDS011;71097;44.760;37.726;2023-07-29T04:10:24;11.52;;;5.03;;
79025;SDS011;71097;44.760;37.726;2023-07-29T04:11:26;12.75;;;5.18;;
79025;SDS011;71097;44.760;37.726;2023-07-29T04:12:28;17.73;;;5.47;;
79025;SDS011;71097;44.760;37.726;2023-07-29T04:13:30;15.95;;;5.57;;
79025;SDS011;71097;44.760;37.726;2023-07-29T04:14:31;13.50;;;5.43;;
79025;SDS011;71097;44.760;37.726;2023-07-29T04:15:33;15.25;;;5.50;;
79025;SDS011;71097;44.760;37.726;2023-07-29T04:16:38;17.10;;;5.28;;
79025;SDS011;71097;44.760;37.726;2023-07-29T04:17:39;15.95;;;5.28;;
79025;SDS011;71097;44.760;37.726;2023-07-29T04:18:42;17.65;;;5.55;;
79025;SDS011;71097;44.760;37.726;2023-07-29T04:19:44;18.40;;;6.28;;
79025;SDS011;71097;44.760;37.726;2023-07-29T04:20:46;12.52;;;5.47;;
79025;SDS011;71097;44.760;37.726;2023-07-29T04:21:48;15.55;;;4.85;;
79025;SDS011;71097;44.760;37.726;2023-07-29T04:23:53;9.98;;;4.30;;
79025;SDS011;71097;44.760;37.726;2023-07-29T04:24:58;7.90;;;4.07;;
79025;SDS011;71097;44.760;37.726;2023-07-29T04:26:00;7.75;;;3.72;;
79025;SDS011;71097;44.760;37.726;2023-07-29T04:27:02;6.90;;;3.60;;
79025;SDS011;71097;44.760;37.726;2023-07-29T04:28:05;7.97;;;3.60;;
79025;SDS011;71097;44.760;37.726;2023-07-29T04:29:07;7.78;;;4.03;;
79025;SDS011;71097;44.760;37.726;2023-07-29T04:30:09;7.20;;;3.35;;
79025;SDS011;71097;44.760;37.726;2023-07-29T04:31:12;6.75;;;2.85;;
79025;SDS011;71097;44.760;37.726;2023-07-29T04:32:13;6.18;;;2.85;;
79025;SDS011;71097;44.760;37.726;2023-07-29T04:34:18;8.80;;;3.03;;
79025;SDS011;71097;44.760;37.726;2023-07-29T04:35:20;6.25;;;3.30;;
79025;SDS011;71097;44.760;37.726;2023-07-29T04:36:22;6.03;;;3.00;;
79025;SDS011;71097;44.760;37.726;2023-07-29T04:37:24;7.40;;;3.20;;
79025;SDS011;71097;44.760;37.726;2023-07-29T04:38:32;7.65;;;3.55;;
79025;SDS011;71097;44.760;37.726;2023-07-29T04:39:34;7.13;;;2.83;;
79025;SDS011;71097;44.760;37.726;2023-07-29T04:40:36;5.28;;;2.65;;
79025;SDS011;71097;44.760;37.726;2023-07-29T04:41:38;6.63;;;2.95;;
79025;SDS011;71097;44.760;37.726;2023-07-29T04:42:40;7.10;;;2.85;;
79025;SDS011;71097;44.760;37.726;2023-07-29T04:43:44;6.72;;;3.20;;
79025;SDS011;71097;44.760;37.726;2023-07-29T04:44:45;7.38;;;3.13;;
79025;SDS011;71097;44.760;37.726;2023-07-29T04:45:47;7.57;;;3.20;;
79025;SDS011;71097;44.760;37.726;2023-07-29T04:46:49;6.43;;;3.25;;
79025;SDS011;71097;44.760;37.726;2023-07-29T04:47:51;6.35;;;2.88;;
79025;SDS011;71097;44.760;37.726;2023-07-29T04:48:53;9.13;;;3.38;;
79025;SDS011;71097;44.760;37.726;2023-07-29T04:50:00;9.80;;;3.33;;
79025;SDS011;71097;44.760;37.726;2023-07-29T04:51:02;5.57;;;2.70;;
79025;SDS011;71097;44.760;37.726;2023-07-29T04:52:08;5.65;;;3.03;;
79025;SDS011;71097;44.760;37.726;2023-07-29T04:53:09;6.25;;;2.88;;
79025;SDS011;71097;44.760;37.726;2023-07-29T04:54:11;5.65;;;3.03;;
79025;SDS011;71097;44.760;37.726;2023-07-29T04:55:13;7.30;;;3.45;;
79025;SDS011;71097;44.760;37.726;2023-07-29T04:56:15;5.22;;;3.20;;
79025;SDS011;71097;44.760;37.726;2023-07-29T04:57:21;6.88;;;3.53;;
79025;SDS011;71097;44.760;37.726;2023-07-29T04:58:23;7.20;;;3.20;;
79025;SDS011;71097;44.760;37.726;2023-07-29T04:59:28;6.60;;;2.83;;
79025;SDS011;71097;44.760;37.726;2023-07-29T05:00:30;8.35;;;3.03;;
79025;SDS011;71097;44.760;37.726;2023-07-29T05:01:32;8.13;;;3.25;;
79025;SDS011;71097;44.760;37.726;2023-07-29T05:02:34;8.02;;;3.00;;
79025;SDS011;71097;44.760;37.726;2023-07-29T05:03:36;7.07;;;3.08;;
79025;SDS011;71097;44.760;37.726;2023-07-29T05:04:41;6.63;;;3.47;;
79025;SDS011;71097;44.760;37.726;2023-07-29T05:05:44;6.22;;;2.88;;
79025;SDS011;71097;44.760;37.726;2023-07-29T05:06:47;6.72;;;2.63;;
79025;SDS011;71097;44.760;37.726;2023-07-29T05:07:49;5.72;;;3.00;;
79025;SDS011;71097;44.760;37.726;2023-07-29T05:08:50;6.10;;;2.90;;
79025;SDS011;71097;44.760;37.726;2023-07-29T05:09:57;4.30;;;2.72;;
79025;SDS011;71097;44.760;37.726;2023-07-29T05:10:59;5.35;;;2.80;;
79025;SDS011;71097;44.760;37.726;2023-07-29T05:12:05;7.38;;;2.65;;
79025;SDS011;71097;44.760;37.726;2023-07-29T05:13:07;5.57;;;2.20;;
79025;SDS011;71097;44.760;37.726;2023-07-29T05:14:09;6.20;;;2.63;;
79025;SDS011;71097;44.760;37.726;2023-07-29T05:15:11;5.32;;;2.83;;
79025;SDS011;71097;44.760;37.726;2023-07-29T05:16:13;6.85;;;2.50;;
79025;SDS011;71097;44.760;37.726;2023-07-29T05:17:15;4.70;;;2.35;;
79025;SDS011;71097;44.760;37.726;2023-07-29T05:18:17;5.68;;;2.78;;
79025;SDS011;71097;44.760;37.726;2023-07-29T05:19:19;5.30;;;2.63;;
79025;SDS011;71097;44.760;37.726;2023-07-29T05:20:21;5.57;;;2.85;;
79025;SDS011;71097;44.760;37.726;2023-07-29T05:21:26;5.25;;;2.70;;
79025;SDS011;71097;44.760;37.726;2023-07-29T05:22:28;5.07;;;2.75;;
79025;SDS011;71097;44.760;37.726;2023-07-29T05:23:30;5.68;;;2.92;;
79025;SDS011;71097;44.760;37.726;2023-07-29T05:24:31;5.95;;;2.60;;
79025;SDS011;71097;44.760;37.726;2023-07-29T05:25:33;4.40;;;2.28;;
79025;SDS011;71097;44.760;37.726;2023-07-29T05:26:38;5.22;;;2.55;;
79025;SDS011;71097;44.760;37.726;2023-07-29T05:27:40;7.28;;;2.53;;
79025;SDS011;71097;44.760;37.726;2023-07-29T05:28:42;8.63;;;2.40;;
79025;SDS011;71097;44.760;37.726;2023-07-29T05:29:44;7.05;;;2.30;;
79025;SDS011;71097;44.760;37.726;2023-07-29T05:30:46;4.45;;;2.38;;
79025;SDS011;71097;44.760;37.726;2023-07-29T05:31:48;6.60;;;2.95;;
79025;SDS011;71097;44.760;37.726;2023-07-29T05:32:50;5.15;;;2.95;;
79025;SDS011;71097;44.760;37.726;2023-07-29T05:33:52;5.70;;;3.05;;
79025;SDS011;71097;44.760;37.726;2023-07-29T05:34:53;8.13;;;3.30;;
79025;SDS011;71097;44.760;37.726;2023-07-29T05:35:57;5.47;;;3.30;;
79025;SDS011;71097;44.760;37.726;2023-07-29T05:36:59;7.55;;;2.97;;
79025;SDS011;71097;44.760;37.726;2023-07-29T05:38:01;6.57;;;3.08;;
79025;SDS011;71097;44.760;37.726;2023-07-29T05:39:07;5.10;;;2.60;;
79025;SDS011;71097;44.760;37.726;2023-07-29T05:40:10;6.45;;;2.72;;
79025;SDS011;71097;44.760;37.726;2023-07-29T05:41:13;5.13;;;2.38;;
79025;SDS011;71097;44.760;37.726;2023-07-29T05:42:15;8.55;;;3.35;;
79025;SDS011;71097;44.760;37.726;2023-07-29T05:43:17;5.68;;;3.00;;
79025;SDS011;71097;44.760;37.726;2023-07-29T05:44:21;8.00;;;3.30;;
79025;SDS011;71097;44.760;37.726;2023-07-29T05:45:26;6.28;;;3.05;;
79025;SDS011;71097;44.760;37.726;2023-07-29T05:46:28;8.38;;;3.05;;
79025;SDS011;71097;44.760;37.726;2023-07-29T05:47:30;5.05;;;2.85;;
79025;SDS011;71097;44.760;37.726;2023-07-29T05:48:42;5.57;;;2.60;;
79025;SDS011;71097;44.760;37.726;2023-07-29T05:49:49;7.70;;;3.00;;
79025;SDS011;71097;44.760;37.726;2023-07-29T05:51:03;4.78;;;3.05;;
79025;SDS011;71097;44.760;37.726;2023-07-29T05:52:19;6.22;;;2.80;;
79025;SDS011;71097;44.760;37.726;2023-07-29T05:53:27;5.40;;;2.60;;
79025;SDS011;71097;44.760;37.726;2023-07-29T05:54:40;3.53;;;1.80;;
79025;SDS011;71097;44.760;37.726;2023-07-29T05:55:44;5.40;;;2.92;;
79025;SDS011;71097;44.760;37.726;2023-07-29T05:56:48;4.10;;;2.42;;
79025;SDS011;71097;44.760;37.726;2023-07-29T05:57:50;5.25;;;2.72;;
79025;SDS011;71097;44.760;37.726;2023-07-29T05:59:04;6.38;;;2.40;;
79025;SDS011;71097;44.760;37.726;2023-07-29T06:00:21;4.78;;;3.08;;
79025;SDS011;71097;44.760;37.726;2023-07-29T06:01:26;5.50;;;2.60;;
79025;SDS011;71097;44.760;37.726;2023-07-29T06:02:28;4.78;;;2.40;;
79025;SDS011;71097;44.760;37.726;2023-07-29T06:03:33;5.55;;;1.98;;
79025;SDS011;71097;44.760;37.726;2023-07-29T06:04:35;5.88;;;2.08;;
79025;SDS011;71097;44.760;37.726;2023-07-29T06:05:37;6.63;;;2.83;;
79025;SDS011;71097;44.760;37.726;2023-07-29T06:06:48;7.22;;;2.25;;
79025;SDS011;71097;44.760;37.726;2023-07-29T06:07:53;5.57;;;2.40;;
79025;SDS011;71097;44.760;37.726;2023-07-29T06:09:19;5.78;;;2.97;;
79025;SDS011;71097;44.760;37.726;2023-07-29T06:10:22;7.22;;;2.67;;
79025;SDS011;71097;44.760;37.726;2023-07-29T06:11:36;7.45;;;2.67;;
79025;SDS011;71097;44.760;37.726;2023-07-29T06:12:41;6.40;;;2.92;;
79025;SDS011;71097;44.760;37.726;2023-07-29T06:13:43;6.00;;;2.72;;
79025;SDS011;71097;44.760;37.726;2023-07-29T06:14:51;5.05;;;2.45;;
79025;SDS011;71097;44.760;37.726;2023-07-29T06:15:54;4.88;;;2.90;;
79025;SDS011;71097;44.760;37.726;2023-07-29T06:16:55;6.68;;;2.60;;
79025;SDS011;71097;44.760;37.726;2023-07-29T06:18:01;4.43;;;2.33;;
79025;SDS011;71097;44.760;37.726;2023-07-29T06:19:10;5.53;;;2.60;;
79025;SDS011;71097;44.760;37.726;2023-07-29T06:21:31;9.02;;;3.05;;
79025;SDS011;71097;44.760;37.726;2023-07-29T06:22:33;6.50;;;2.65;;
79025;SDS011;71097;44.760;37.726;2023-07-29T06:23:38;6.18;;;2.92;;
79025;SDS011;71097;44.760;37.726;2023-07-29T06:24:46;6.13;;;2.97;;
79025;SDS011;71097;44.760;37.726;2023-07-29T06:25:56;8.50;;;2.85;;
79025;SDS011;71097;44.760;37.726;2023-07-29T06:27:04;4.72;;;2.40;;
79025;SDS011;71097;44.760;37.726;2023-07-29T06:28:12;7.22;;;2.63;;
79025;SDS011;71097;44.760;37.726;2023-07-29T06:29:23;7.30;;;2.50;;
79025;SDS011;71097;44.760;37.726;2023-07-29T06:30:27;7.18;;;3.88;;